Time;durP1;ratioP1;P1;durP2;ratioP2;P2;SDS_P1;SDS_P2;PMS_P1;PMS_P2;Temp;Humidity;BMP_temperature;BMP_pressure;BME280_temperature;BME280_humidity;BME280_pressure;Samples;Min_cycle;Max_cycle;Signal;HPM_P1;HPM_P2
2022/05/09 00:02:17;;;;;;;11.27;10.13;;;14.00;74.30;;;;;;4973124;28;20070;-64
2022/05/09 00:04:43;;;;;;;11.80;9.88;;;13.90;74.20;;;;;;4987902;28;20034;-67
2022/05/09 00:07:09;;;;;;;11.63;10.43;;;13.90;74.10;;;;;;4972277;28;20134;-67
2022/05/09 00:09:34;;;;;;;12.25;10.27;;;13.80;74.10;;;;;;4972046;28;20443;-67
2022/05/09 00:12:00;;;;;;;12.20;10.30;;;13.80;74.40;;;;;;4971239;28;20438;-67
2022/05/09 00:14:26;;;;;;;10.70;9.35;;;13.70;74.60;;;;;;4973318;28;20113;-67
2022/05/09 00:16:52;;;;;;;11.02;9.93;;;13.60;74.50;;;;;;4974225;28;20185;-67
2022/05/09 00:19:20;;;;;;;11.70;10.52;;;13.60;74.60;;;;;;4974466;28;20062;-67
2022/05/09 00:21:48;;;;;;;12.90;11.57;;;13.50;74.70;;;;;;4973382;28;20027;-67
2022/05/09 00:24:15;;;;;;;13.68;12.27;;;13.40;75.20;;;;;;4977221;28;20041;-67
2022/05/09 00:26:48;;;;;;;12.00;10.80;;;13.40;75.40;;;;;;4971941;28;20038;-66
2022/05/09 00:29:15;;;;;;;13.35;11.05;;;13.30;75.80;;;;;;4976384;28;20431;-67
2022/05/09 00:31:43;;;;;;;12.52;10.98;;;13.20;75.40;;;;;;4973861;28;20023;-66
2022/05/09 00:34:11;;;;;;;11.32;10.13;;;13.20;75.40;;;;;;4972596;28;20161;-67
2022/05/09 00:36:37;;;;;;;11.93;10.40;;;13.20;75.50;;;;;;4970482;28;20423;-67
2022/05/09 00:39:04;;;;;;;11.75;10.52;;;13.20;75.40;;;;;;4972870;28;20479;-67
2022/05/09 00:41:37;;;;;;;12.07;10.88;;;13.10;76.10;;;;;;4972245;28;20130;-67
2022/05/09 00:44:27;;;;;;;13.20;11.43;;;13.10;75.30;;;;;;4973294;28;20093;-67
2022/05/09 00:46:55;;;;;;;12.23;10.90;;;13.00;75.40;;;;;;4974523;28;20038;-66
2022/05/09 00:49:38;;;;;;;11.68;10.40;;;13.00;75.20;;;;;;4973048;28;20158;-66
2022/05/09 00:52:24;;;;;;;11.93;10.63;;;12.90;75.20;;;;;;4972077;28;20399;-67
2022/05/09 00:54:56;;;;;;;12.02;10.73;;;12.90;75.70;;;;;;4971527;28;20042;-66
2022/05/09 00:57:40;;;;;;;13.48;11.32;;;12.80;75.30;;;;;;4972494;28;20049;-67
2022/05/09 01:00:10;;;;;;;15.00;11.25;;;12.80;75.80;;;;;;4972283;28;20094;-66
2022/05/09 01:02:37;;;;;;;14.05;10.80;;;12.70;75.70;;;;;;4972382;28;20035;-67
2022/05/09 01:05:04;;;;;;;13.23;11.57;;;12.60;76.00;;;;;;4973975;28;20039;-66
2022/05/09 01:07:30;;;;;;;11.60;10.43;;;12.50;76.60;;;;;;4973363;28;20042;-67
2022/05/09 01:09:57;;;;;;;12.73;11.38;;;12.50;76.80;;;;;;4972886;28;20117;-67
2022/05/09 01:12:30;;;;;;;14.18;11.88;;;12.40;76.80;;;;;;4970667;28;20548;-67
2022/05/09 01:15:05;;;;;;;13.73;11.88;;;12.40;76.90;;;;;;4971251;28;20533;-67
2022/05/09 01:17:31;;;;;;;12.65;11.32;;;12.40;76.90;;;;;;4972989;28;20046;-67
2022/05/09 01:20:00;;;;;;;14.13;11.75;;;12.40;76.80;;;;;;4972109;28;20035;-67
2022/05/09 01:22:25;;;;;;;13.82;11.30;;;12.30;76.80;;;;;;4971849;28;20577;-66
2022/05/09 01:24:53;;;;;;;13.73;11.43;;;12.30;76.80;;;;;;4973318;28;20054;-67
2022/05/09 01:27:19;;;;;;;13.82;11.77;;;12.30;77.10;;;;;;4985340;28;20065;-66
2022/05/09 01:30:06;;;;;;;12.73;11.40;;;12.20;77.00;;;;;;4975635;28;20041;-67
2022/05/09 01:32:59;;;;;;;12.70;11.40;;;12.20;77.40;;;;;;4972911;28;20078;-67
2022/05/09 01:35:25;;;;;;;13.35;11.13;;;12.20;77.50;;;;;;4963387;28;20062;-66
2022/05/09 01:38:06;;;;;;;13.75;11.63;;;12.20;76.80;;;;;;4977807;28;20110;-67
2022/05/09 01:40:31;;;;;;;12.68;11.38;;;12.10;77.00;;;;;;4975168;28;20271;-66
2022/05/09 01:42:57;;;;;;;12.60;11.15;;;12.10;76.80;;;;;;4990979;28;20046;-67
2022/05/09 01:45:22;;;;;;;12.55;11.25;;;12.10;76.80;;;;;;4975981;28;20490;-66
2022/05/09 01:50:32;;;;;;;14.18;11.85;;;12.10;76.70;;;;;;4978419;28;20399;-67
2022/05/09 01:52:58;;;;;;;15.27;11.60;;;12.10;76.60;;;;;;4974952;28;20026;-66
2022/05/09 01:55:24;;;;;;;12.93;11.43;;;12.10;76.60;;;;;;4974147;28;20034;-67
2022/05/09 01:57:50;;;;;;;13.35;11.30;;;12.10;76.60;;;;;;4992057;28;20030;-67
2022/05/09 02:00:17;;;;;;;15.75;11.73;;;12.10;76.50;;;;;;4976963;28;20066;-67
2022/05/09 02:02:43;;;;;;;17.58;13.13;;;12.00;76.60;;;;;;4975014;28;20124;-65
2022/05/09 02:05:09;;;;;;;22.48;15.13;;;12.00;76.70;;;;;;4975191;28;20041;-66
2022/05/09 02:07:35;;;;;;;20.38;13.80;;;11.90;76.60;;;;;;4974996;28;20039;-66
2022/05/09 02:10:01;;;;;;;20.42;14.50;;;11.90;76.70;;;;;;4975553;28;20034;-67
2022/05/09 02:12:27;;;;;;;16.70;12.43;;;11.90;76.90;;;;;;4977480;28;20039;-66
2022/05/09 02:14:53;;;;;;;16.67;12.10;;;11.80;76.90;;;;;;4973374;28;20119;-68
2022/05/09 02:17:19;;;;;;;14.82;11.43;;;11.80;77.00;;;;;;4978080;28;20062;-67
2022/05/09 02:19:45;;;;;;;14.07;11.43;;;11.80;77.20;;;;;;4977584;28;20034;-67
2022/05/09 02:22:11;;;;;;;14.20;11.68;;;11.80;77.20;;;;;;4976257;28;20539;-66
2022/05/09 02:24:39;;;;;;;12.35;10.82;;;11.80;77.20;;;;;;4975113;28;20041;-67
2022/05/09 02:27:05;;;;;;;13.35;10.95;;;11.80;77.00;;;;;;4975765;28;20402;-67
2022/05/09 02:29:31;;;;;;;11.70;10.45;;;11.80;77.00;;;;;;4976178;28;20613;-67
2022/05/09 02:31:57;;;;;;;12.23;10.65;;;11.80;76.80;;;;;;4978958;28;20046;-66
2022/05/09 02:34:23;;;;;;;11.85;10.32;;;11.80;76.60;;;;;;4980303;28;20050;-66
2022/05/09 02:36:49;;;;;;;12.02;10.50;;;11.70;76.50;;;;;;4958603;28;21049;-67
2022/05/09 02:39:15;;;;;;;11.13;9.93;;;11.70;76.50;;;;;;4973226;28;20109;-67
2022/05/09 02:41:41;;;;;;;10.75;9.65;;;11.70;76.50;;;;;;4975751;28;20035;-67
2022/05/09 02:44:06;;;;;;;12.35;10.43;;;11.60;76.50;;;;;;4974659;28;20185;-67
2022/05/09 02:46:32;;;;;;;10.63;9.52;;;11.60;76.60;;;;;;4973561;28;20495;-68
2022/05/09 02:48:59;;;;;;;13.05;10.80;;;11.50;76.50;;;;;;4973295;28;20031;-67
2022/05/09 02:51:27;;;;;;;11.40;10.20;;;11.50;76.40;;;;;;4974359;28;20383;-67
2022/05/09 02:53:55;;;;;;;10.60;8.98;;;11.50;76.60;;;;;;4970280;28;20037;-65
2022/05/09 02:56:21;;;;;;;11.40;9.98;;;11.40;76.90;;;;;;4975898;28;20047;-67
2022/05/09 02:58:47;;;;;;;11.23;9.90;;;11.40;76.80;;;;;;4972372;28;20053;-66
2022/05/09 03:01:12;;;;;;;11.35;9.68;;;11.40;76.70;;;;;;4974428;28;20031;-66
2022/05/09 03:06:22;;;;;;;10.48;9.38;;;11.40;76.80;;;;;;4975578;28;20122;-67
2022/05/09 03:08:48;;;;;;;12.20;10.18;;;11.40;76.90;;;;;;4973811;28;20117;-66
2022/05/09 03:11:13;;;;;;;13.82;10.00;;;11.40;76.90;;;;;;4971920;28;20050;-67
2022/05/09 03:13:39;;;;;;;11.75;10.40;;;11.40;76.70;;;;;;4970802;28;20522;-67
2022/05/09 03:16:06;;;;;;;11.13;9.35;;;11.40;76.60;;;;;;4974552;28;20046;-67
2022/05/09 03:18:31;;;;;;;11.05;9.45;;;11.30;76.60;;;;;;4971307;28;20518;-64
2022/05/09 03:20:57;;;;;;;13.10;10.52;;;11.30;76.80;;;;;;4975884;28;20042;-67
2022/05/09 03:23:23;;;;;;;11.25;9.57;;;11.30;76.80;;;;;;4977219;28;20034;-67
2022/05/09 03:25:49;;;;;;;13.00;10.93;;;11.20;76.60;;;;;;4967559;28;20043;-67
2022/05/09 03:28:21;;;;;;;11.68;10.43;;;11.20;76.60;;;;;;4972849;28;20041;-66
2022/05/09 03:30:49;;;;;;;12.48;10.18;;;11.20;76.80;;;;;;4972876;28;20418;-66
2022/05/09 03:33:15;;;;;;;12.90;10.98;;;11.20;76.80;;;;;;4976135;28;20060;-66
2022/05/09 03:35:42;;;;;;;16.00;11.80;;;11.10;76.80;;;;;;4988548;28;20501;-67
2022/05/09 03:38:07;;;;;;;12.00;10.82;;;11.10;76.80;;;;;;4973735;28;20042;-67
2022/05/09 03:40:34;;;;;;;14.68;12.45;;;11.10;77.00;;;;;;4972278;28;20084;-66
2022/05/09 03:43:00;;;;;;;15.50;12.40;;;11.10;77.00;;;;;;4973267;28;20106;-66
2022/05/09 03:45:27;;;;;;;13.73;11.85;;;11.10;77.00;;;;;;4978015;28;20027;-67
2022/05/09 03:47:54;;;;;;;16.08;13.13;;;11.10;77.00;;;;;;4972690;28;20474;-66
2022/05/09 03:50:20;;;;;;;13.43;11.60;;;11.00;76.80;;;;;;4975958;28;20491;-67
2022/05/09 03:52:45;;;;;;;14.65;12.50;;;11.00;76.90;;;;;;4974355;28;20030;-67
2022/05/09 03:55:12;;;;;;;15.02;11.45;;;10.90;77.00;;;;;;4973114;28;20541;-66
2022/05/09 03:57:49;;;;;;;13.73;12.23;;;10.90;77.00;;;;;;4976740;28;20030;-67
2022/05/09 04:00:16;;;;;;;15.20;12.27;;;10.80;77.30;;;;;;4975442;28;21935;-67
2022/05/09 04:02:43;;;;;;;12.75;11.15;;;10.80;77.20;;;;;;4989034;28;20039;-66
2022/05/09 04:05:15;;;;;;;13.05;11.57;;;10.80;77.40;;;;;;4988025;28;20038;-66
2022/05/09 04:07:42;;;;;;;13.82;11.68;;;10.70;77.60;;;;;;4973444;28;21661;-67
2022/05/09 04:10:09;;;;;;;16.08;11.45;;;10.70;77.80;;;;;;4975125;28;20094;-67
2022/05/09 04:12:35;;;;;;;12.43;10.93;;;10.80;77.90;;;;;;4971654;28;20518;-67
2022/05/09 04:17:45;;;;;;;12.63;11.32;;;10.80;77.90;;;;;;4974445;28;20053;-67
2022/05/09 04:20:11;;;;;;;14.30;11.07;;;10.80;77.90;;;;;;4988323;28;20546;-66
2022/05/09 04:22:37;;;;;;;12.80;11.45;;;10.80;78.10;;;;;;4970412;28;20303;-65
2022/05/09 04:25:04;;;;;;;13.75;11.40;;;10.80;78.30;;;;;;4985440;28;20034;-66
2022/05/09 04:27:30;;;;;;;12.27;10.95;;;10.80;78.40;;;;;;4973146;28;20593;-67
2022/05/09 04:29:56;;;;;;;12.30;11.00;;;10.80;78.60;;;;;;4971385;28;20174;-67
2022/05/09 04:32:22;;;;;;;13.38;10.45;;;10.80;79.00;;;;;;4976213;28;20070;-66
2022/05/09 04:34:47;;;;;;;12.50;11.00;;;10.80;79.40;;;;;;4988215;28;20061;-66
2022/05/09 04:37:13;;;;;;;12.07;10.77;;;10.90;79.70;;;;;;4975071;28;20085;-67
2022/05/09 04:39:39;;;;;;;11.20;10.00;;;10.90;79.60;;;;;;4973942;28;20027;-66
2022/05/09 04:42:05;;;;;;;11.25;10.05;;;11.00;79.80;;;;;;4977694;28;20651;-65
2022/05/09 04:44:30;;;;;;;13.40;11.00;;;11.00;79.80;;;;;;4973268;28;20038;-67
2022/05/09 04:46:56;;;;;;;16.10;10.52;;;11.10;79.90;;;;;;4973861;28;20065;-66
2022/05/09 04:49:21;;;;;;;17.08;10.57;;;11.10;79.90;;;;;;4973863;28;20684;-66
2022/05/09 04:51:47;;;;;;;11.68;10.43;;;11.20;80.10;;;;;;4980568;28;20077;-66
2022/05/09 04:54:14;;;;;;;11.27;10.07;;;11.20;80.30;;;;;;4975540;28;20038;-66
2022/05/09 04:56:40;;;;;;;21.45;14.75;;;11.20;80.40;;;;;;4974817;28;20080;-67
2022/05/09 04:59:06;;;;;;;27.27;22.05;;;11.20;80.50;;;;;;4972313;28;20039;-66
2022/05/09 05:01:31;;;;;;;25.38;20.23;;;11.20;80.50;;;;;;4974168;28;20069;-67
2022/05/09 05:03:57;;;;;;;21.05;17.90;;;11.30;80.60;;;;;;4975707;28;20038;-67
2022/05/09 05:06:23;;;;;;;18.92;16.33;;;11.30;80.70;;;;;;4976199;28;20490;-66
2022/05/09 05:08:48;;;;;;;17.42;14.40;;;11.40;80.80;;;;;;4981637;28;20058;-66
2022/05/09 05:11:14;;;;;;;15.05;12.88;;;11.40;81.00;;;;;;4972215;28;20071;-66
2022/05/09 05:13:39;;;;;;;13.23;11.73;;;11.50;81.20;;;;;;4973418;28;20066;-69
2022/05/09 05:16:05;;;;;;;11.65;10.38;;;11.50;81.40;;;;;;4975139;28;20085;-67
2022/05/09 05:18:32;;;;;;;12.32;10.63;;;11.60;81.70;;;;;;4974024;28;20477;-66
2022/05/09 05:20:58;;;;;;;13.57;10.98;;;11.60;81.80;;;;;;4977316;28;20117;-66
2022/05/09 05:23:24;;;;;;;11.30;9.93;;;11.70;81.90;;;;;;4973628;28;20030;-66
2022/05/09 05:25:50;;;;;;;12.70;10.70;;;11.80;82.00;;;;;;4975742;28;20093;-66
2022/05/09 05:28:17;;;;;;;11.13;10.05;;;11.90;82.10;;;;;;4976292;28;20082;-66
2022/05/09 05:30:43;;;;;;;11.65;10.48;;;11.90;82.30;;;;;;4974888;28;20034;-66
2022/05/09 05:33:09;;;;;;;13.15;11.27;;;12.10;82.50;;;;;;4972691;28;20085;-66
2022/05/09 05:35:35;;;;;;;12.00;10.80;;;12.10;82.40;;;;;;4972525;28;20113;-66
2022/05/09 05:38:00;;;;;;;11.55;10.35;;;12.20;82.60;;;;;;4990503;28;20054;-66
2022/05/09 05:40:26;;;;;;;12.45;11.10;;;12.30;82.60;;;;;;4969179;28;20034;-67
2022/05/09 05:42:54;;;;;;;13.05;11.65;;;12.30;82.60;;;;;;4975228;28;20035;-65
2022/05/09 05:45:22;;;;;;;13.82;11.02;;;12.40;82.70;;;;;;4974586;28;20101;-66
2022/05/09 05:47:48;;;;;;;12.18;10.82;;;12.50;82.90;;;;;;4973901;28;20034;-66
2022/05/09 05:50:17;;;;;;;11.73;10.07;;;12.60;82.80;;;;;;4986874;28;20037;-67
2022/05/09 05:52:43;;;;;;;13.52;10.82;;;12.60;82.90;;;;;;4972778;28;20114;-66
2022/05/09 05:55:09;;;;;;;12.65;11.35;;;12.70;82.90;;;;;;4975626;28;20831;-66
2022/05/09 05:57:41;;;;;;;12.63;11.32;;;12.80;83.20;;;;;;4975575;28;20125;-67
2022/05/09 06:00:25;;;;;;;12.98;11.10;;;12.80;83.30;;;;;;4976110;28;20462;-66
2022/05/09 06:02:51;;;;;;;12.73;11.40;;;12.90;84.10;;;;;;4971375;28;20034;-66
2022/05/09 06:05:18;;;;;;;12.63;11.30;;;13.00;83.00;;;;;;4981720;28;20045;-66
2022/05/09 06:07:46;;;;;;;13.88;12.32;;;13.10;83.10;;;;;;4975686;28;20034;-66
2022/05/09 06:10:15;;;;;;;12.10;10.88;;;13.10;83.30;;;;;;4973903;28;20046;-66
2022/05/09 06:12:41;;;;;;;12.68;11.38;;;13.20;82.90;;;;;;4974136;28;20034;-66
2022/05/09 06:15:28;;;;;;;12.60;11.30;;;13.30;82.90;;;;;;4976277;28;20433;-66
2022/05/09 06:17:57;;;;;;;12.68;11.18;;;13.40;83.10;;;;;;4978614;28;20030;-66
2022/05/09 06:20:23;;;;;;;12.60;11.32;;;13.50;82.90;;;;;;4975514;28;20066;-66
2022/05/09 06:22:50;;;;;;;12.93;10.77;;;13.50;82.60;;;;;;4978832;28;20310;-66
2022/05/09 06:25:17;;;;;;;12.95;10.80;;;13.60;82.60;;;;;;4977101;28;20536;-66
2022/05/09 06:27:43;;;;;;;12.35;11.15;;;13.70;82.60;;;;;;4977359;28;20038;-66
2022/05/09 06:30:11;;;;;;;13.75;11.48;;;13.80;82.50;;;;;;4976347;28;20042;-66
2022/05/09 06:32:37;;;;;;;12.27;10.98;;;13.80;82.40;;;;;;4977875;28;20150;-66
2022/05/09 06:35:05;;;;;;;12.18;10.98;;;13.90;82.20;;;;;;4975867;28;20118;-65
2022/05/09 06:37:33;;;;;;;11.77;10.68;;;14.00;82.20;;;;;;4976811;28;20051;-66
2022/05/09 06:39:59;;;;;;;13.23;11.82;;;14.10;82.30;;;;;;4975137;28;20080;-67
2022/05/09 06:42:27;;;;;;;13.20;11.43;;;14.20;82.40;;;;;;4976680;28;20042;-66
2022/05/09 06:44:53;;;;;;;12.95;11.27;;;14.30;82.20;;;;;;4993927;28;20458;-67
2022/05/09 06:47:19;;;;;;;12.63;11.38;;;14.40;81.90;;;;;;4976373;28;20035;-67
2022/05/09 06:49:44;;;;;;;13.15;11.85;;;14.50;82.10;;;;;;4976293;28;20550;-66
2022/05/09 06:52:10;;;;;;;12.48;10.77;;;14.50;81.80;;;;;;4978299;28;20053;-66
2022/05/09 06:54:35;;;;;;;13.52;11.68;;;14.60;82.40;;;;;;4990080;28;20043;-66
2022/05/09 06:57:01;;;;;;;12.88;10.68;;;14.70;81.50;;;;;;4990958;28;20125;-67
2022/05/09 06:59:27;;;;;;;14.55;11.57;;;14.80;81.20;;;;;;4989946;28;20169;-67
2022/05/09 07:01:52;;;;;;;12.20;11.00;;;14.80;81.20;;;;;;4980276;28;20418;-66
2022/05/09 07:04:18;;;;;;;12.35;11.10;;;14.90;81.00;;;;;;4980561;28;20034;-67
2022/05/09 07:06:44;;;;;;;12.55;11.27;;;14.90;81.90;;;;;;4993524;28;20049;-66
2022/05/09 07:09:11;;;;;;;16.58;11.85;;;15.00;80.80;;;;;;4980588;28;20034;-66
2022/05/09 07:11:37;;;;;;;12.57;11.18;;;15.10;80.80;;;;;;4989427;28;20027;-66
2022/05/09 07:14:04;;;;;;;12.30;11.07;;;15.10;80.80;;;;;;4976877;28;20031;-67
2022/05/09 07:16:30;;;;;;;12.43;11.23;;;15.20;81.70;;;;;;4976674;28;20037;-66
2022/05/09 07:18:56;;;;;;;11.73;10.55;;;15.30;80.80;;;;;;4974766;28;20031;-66
2022/05/09 07:21:22;;;;;;;12.15;10.95;;;15.30;80.80;;;;;;4979327;28;20061;-67
2022/05/09 07:23:47;;;;;;;13.88;12.48;;;15.40;80.80;;;;;;4979289;28;20058;-66
2022/05/09 07:26:13;;;;;;;12.85;11.55;;;15.50;80.50;;;;;;4975408;28;20041;-66
2022/05/09 07:28:40;;;;;;;13.43;11.80;;;15.60;80.50;;;;;;4976345;28;20113;-66
2022/05/09 07:31:06;;;;;;;12.55;11.25;;;15.70;80.30;;;;;;4975658;28;20046;-66
2022/05/09 07:33:32;;;;;;;13.52;12.13;;;15.80;80.20;;;;;;4976406;28;20121;-66
2022/05/09 07:35:58;;;;;;;13.20;11.90;;;15.90;80.30;;;;;;4974314;28;20108;-67
2022/05/09 07:38:24;;;;;;;19.10;11.68;;;16.00;80.00;;;;;;4975730;28;20494;-67
2022/05/09 07:40:50;;;;;;;12.25;10.95;;;16.10;79.80;;;;;;4989853;28;20086;-66
2022/05/09 07:43:23;;;;;;;12.52;11.27;;;16.10;79.50;;;;;;4975273;28;20133;-66
2022/05/09 07:45:49;;;;;;;13.13;11.80;;;16.20;79.40;;;;;;4991345;28;20054;-67
2022/05/09 07:48:16;;;;;;;13.30;12.00;;;16.30;79.10;;;;;;4975415;28;20067;-66
2022/05/09 07:50:42;;;;;;;13.05;11.60;;;16.40;78.90;;;;;;4991591;28;20108;-67
2022/05/09 07:53:20;;;;;;;13.00;11.18;;;16.50;79.00;;;;;;4976465;28;20038;-66
2022/05/09 07:55:46;;;;;;;13.35;11.95;;;16.60;78.90;;;;;;4984617;28;20027;-66
2022/05/09 07:58:12;;;;;;;13.18;11.88;;;16.70;78.60;;;;;;4977564;28;20041;-66
2022/05/09 08:00:39;;;;;;;13.10;11.80;;;16.70;78.20;;;;;;4977247;28;20085;-66
2022/05/09 08:03:06;;;;;;;12.20;10.85;;;16.80;78.20;;;;;;4971659;28;20128;-66
2022/05/09 08:05:34;;;;;;;13.68;12.05;;;16.90;78.20;;;;;;4975858;28;20138;-66
2022/05/09 08:07:59;;;;;;;15.38;12.55;;;17.00;77.90;;;;;;4975545;28;20039;-67
2022/05/09 08:10:25;;;;;;;16.00;12.13;;;17.00;78.10;;;;;;4977888;28;20035;-67
2022/05/09 08:12:52;;;;;;;14.68;11.77;;;17.10;77.70;;;;;;4974706;28;20038;-67
2022/05/09 08:15:19;;;;;;;12.38;11.10;;;17.20;77.50;;;;;;4974084;28;20410;-67
2022/05/09 08:17:47;;;;;;;13.50;12.07;;;17.30;77.40;;;;;;4978647;28;20030;-66
2022/05/09 08:20:13;;;;;;;12.63;11.35;;;17.40;77.10;;;;;;4977695;28;20536;-67
2022/05/09 08:22:40;;;;;;;13.43;11.52;;;17.40;77.10;;;;;;4975807;28;20289;-66
2022/05/09 08:25:06;;;;;;;10.60;9.50;;;17.50;77.20;;;;;;4977118;28;20125;-67
2022/05/09 08:27:32;;;;;;;11.13;9.75;;;17.60;76.80;;;;;;4975728;28;20173;-66
2022/05/09 08:29:58;;;;;;;11.13;10.02;;;17.70;76.40;;;;;;4977135;28;20454;-66
2022/05/09 08:32:26;;;;;;;11.80;9.32;;;17.90;77.50;;;;;;4977831;28;20137;-67
2022/05/09 08:34:52;;;;;;;10.85;9.73;;;18.00;76.00;;;;;;4977426;28;20027;-66
2022/05/09 08:37:19;;;;;;;11.18;9.63;;;18.10;75.80;;;;;;4975651;28;20565;-67
2022/05/09 08:39:45;;;;;;;10.20;9.20;;;18.20;75.00;;;;;;4975663;28;20042;-67
2022/05/09 08:42:20;;;;;;;10.07;9.02;;;18.40;74.60;;;;;;4976184;28;20158;-66
2022/05/09 08:44:52;;;;;;;;;;;18.50;73.80;;;;;;4976860;28;20034;-66
2022/05/09 08:47:27;;;;;;;9.23;8.25;;;18.60;74.30;;;;;;4991084;28;19964;-67
2022/05/09 08:50:17;;;;;;;10.00;8.65;;;18.80;73.60;;;;;;4991544;28;20061;-66
2022/05/09 08:52:53;;;;;;;9.50;8.50;;;18.80;72.30;;;;;;4977284;28;20054;-66
2022/05/09 08:55:33;;;;;;;10.43;8.43;;;18.90;71.90;;;;;;4978160;28;20031;-67
2022/05/09 08:58:03;;;;;;;9.65;8.63;;;19.00;71.30;;;;;;4965734;28;20074;-67
2022/05/09 09:00:31;;;;;;;9.43;8.55;;;19.10;71.90;;;;;;4957011;28;20511;-66
2022/05/09 09:03:04;;;;;;;9.10;8.13;;;19.10;71.40;;;;;;4978517;28;20045;-67
2022/05/09 09:05:34;;;;;;;8.18;7.38;;;19.30;71.00;;;;;;4973977;28;20226;-67
2022/05/09 09:08:18;;;;;;;9.65;8.65;;;19.30;70.20;;;;;;4964698;28;20562;-67
2022/05/09 09:10:53;;;;;;;9.60;8.70;;;19.50;70.00;;;;;;4978128;28;20051;-67
2022/05/09 09:13:44;;;;;;;;;;;19.60;69.50;;;;;;4980762;28;20054;-66
2022/05/09 09:16:41;;;;;;;8.75;7.57;;;19.70;70.00;;;;;;4984553;28;19917;-67
2022/05/09 09:19:24;;;;;;;8.45;7.38;;;19.80;69.70;;;;;;4978704;28;20088;-67
2022/05/09 09:21:50;;;;;;;7.47;6.78;;;19.90;69.60;;;;;;4978430;28;20113;-67
2022/05/09 09:24:33;;;;;;;8.55;7.75;;;20.00;69.00;;;;;;4976177;28;20129;-67
2022/05/09 09:27:24;;;;;;;9.13;7.95;;;20.10;67.30;;;;;;4974550;28;20031;-67
2022/05/09 09:29:55;;;;;;;8.95;8.13;;;20.20;66.70;;;;;;4976078;28;20088;-66
2022/05/09 09:32:22;;;;;;;8.43;7.60;;;20.40;66.60;;;;;;4974755;28;20031;-67
2022/05/09 09:35:13;;;;;;;8.30;6.85;;;20.50;67.40;;;;;;4975207;28;20031;-66
2022/05/09 09:37:49;;;;;;;7.68;6.93;;;20.50;66.60;;;;;;4975213;28;20027;-67
2022/05/09 09:40:15;;;;;;;8.40;7.35;;;20.60;66.20;;;;;;4972369;28;20458;-67
2022/05/09 09:42:40;;;;;;;7.78;6.97;;;20.70;66.60;;;;;;4974055;28;20034;-67
2022/05/09 09:45:49;;;;;;;7.35;6.65;;;20.80;65.90;;;;;;4968625;28;20119;-66
2022/05/09 09:48:24;;;;;;;6.55;6.05;;;20.90;64.50;;;;;;4951018;28;20042;-67
2022/05/09 09:50:59;;;;;;;7.05;6.00;;;21.00;66.00;;;;;;4978250;28;20035;-67
2022/05/09 09:53:39;;;;;;;6.47;5.88;;;21.10;64.40;;;;;;4979547;28;20053;-67
2022/05/09 09:56:28;;;;;;;6.57;5.95;;;21.20;63.80;;;;;;4968760;28;20039;-67
2022/05/09 09:59:09;;;;;;;6.55;5.93;;;21.30;62.00;;;;;;4957292;28;20117;-66
2022/05/09 10:01:35;;;;;;;6.72;6.13;;;21.40;64.00;;;;;;4959659;28;20139;-68
2022/05/09 10:04:09;;;;;;;7.20;6.53;;;21.40;63.50;;;;;;4960384;28;20034;-67
2022/05/09 10:06:54;;;;;;;6.05;5.55;;;21.50;62.00;;;;;;4957925;28;20769;-67
2022/05/09 10:09:21;;;;;;;6.57;6.03;;;21.50;62.70;;;;;;4958984;28;20518;-67
2022/05/09 10:11:47;;;;;;;6.90;6.28;;;21.60;62.40;;;;;;4964148;28;20089;-67
2022/05/09 10:14:34;;;;;;;6.07;5.57;;;21.60;61.90;;;;;;4974559;28;20043;-68
2022/05/09 10:17:15;;;;;;;6.43;5.93;;;21.70;60.50;;;;;;4962195;28;20027;-67
2022/05/09 10:19:41;;;;;;;6.57;5.90;;;21.70;59.50;;;;;;4960232;28;20036;-67
2022/05/09 10:25:28;;;;;;;6.82;5.63;;;21.80;60.30;;;;;;4959284;28;20701;-67
2022/05/09 10:28:19;;;;;;;8.10;5.72;;;21.80;60.80;;;;;;4960108;28;20052;-67
2022/05/09 10:30:48;;;;;;;6.05;5.45;;;21.80;60.40;;;;;;4974474;28;20051;-67
2022/05/09 10:33:38;;;;;;;6.38;5.88;;;21.80;61.70;;;;;;4967158;28;20042;-67
2022/05/09 10:36:31;;;;;;;6.53;5.82;;;21.90;59.80;;;;;;4980179;28;20535;-67
2022/05/09 10:39:13;;;;;;;7.03;5.65;;;21.90;59.50;;;;;;4979537;28;20061;-66
2022/05/09 10:41:48;;;;;;;6.32;5.72;;;22.00;59.50;;;;;;4979022;28;20039;-66
2022/05/09 10:44:41;;;;;;;5.85;5.35;;;22.00;60.40;;;;;;4981503;28;20471;-67
2022/05/09 10:47:19;;;;;;;6.07;5.57;;;22.10;59.50;;;;;;4979097;28;20045;-68
2022/05/09 10:50:01;;;;;;;6.00;5.40;;;22.10;59.40;;;;;;4976541;28;20042;-67
2022/05/09 10:52:41;;;;;;;5.85;5.20;;;22.20;59.40;;;;;;4979781;28;20022;-67
2022/05/09 10:55:15;;;;;;;6.35;5.80;;;22.20;59.40;;;;;;4978711;28;20027;-67
2022/05/09 10:58:05;;;;;;;6.78;5.57;;;22.30;59.40;;;;;;4976334;28;20042;-67
2022/05/09 11:00:34;;;;;;;6.15;5.55;;;22.30;58.00;;;;;;4978404;28;20057;-67
2022/05/09 11:03:26;;;;;;;7.35;5.50;;;22.40;58.80;;;;;;4976028;28;20035;-66
2022/05/09 11:05:58;;;;;;;6.30;5.75;;;22.50;58.20;;;;;;4978796;28;20511;-67
2022/05/09 11:08:29;;;;;;;5.88;5.38;;;22.50;58.70;;;;;;4978646;28;20058;-67
2022/05/09 11:11:35;;;;;;;6.03;5.43;;;22.50;58.10;;;;;;4974763;28;20045;-67
2022/05/09 11:14:07;;;;;;;5.95;5.45;;;22.50;58.10;;;;;;4926506;28;20146;-67
2022/05/09 11:16:45;;;;;;;6.40;5.80;;;22.60;57.70;;;;;;4978488;28;20114;-67
2022/05/09 11:19:45;;;;;;;6.20;5.70;;;22.70;57.20;;;;;;4979025;28;20050;-67
2022/05/09 11:22:35;;;;;;;5.60;5.10;;;22.70;57.00;;;;;;4976485;28;20031;-67
2022/05/09 11:25:07;;;;;;;5.72;5.07;;;22.70;57.10;;;;;;4987597;28;20039;-67
2022/05/09 11:27:51;;;;;;;6.95;5.22;;;22.80;57.50;;;;;;4976740;28;20035;-67
2022/05/09 11:30:39;;;;;;;6.30;5.38;;;22.90;58.00;;;;;;4976882;28;20045;-66
2022/05/09 11:33:08;;;;;;;5.78;5.30;;;23.00;56.20;;;;;;4977438;28;20038;-67
2022/05/09 11:35:36;;;;;;;7.15;5.32;;;23.00;56.80;;;;;;4978194;28;20150;-67
2022/05/09 11:38:33;;;;;;;5.20;4.78;;;23.00;56.90;;;;;;4977803;28;20046;-67
2022/05/09 11:41:15;;;;;;;5.10;4.60;;;23.10;56.00;;;;;;4975361;28;20110;-65
2022/05/09 11:44:15;;;;;;;4.82;4.43;;;23.10;56.00;;;;;;4976690;28;20030;-67
2022/05/09 11:46:57;;;;;;;4.97;4.57;;;23.20;55.20;;;;;;4978238;28;20035;-66
2022/05/09 11:49:40;;;;;;;5.65;5.15;;;23.20;55.20;;;;;;4976541;28;20030;-67
2022/05/09 11:52:23;;;;;;;4.70;4.30;;;23.20;56.00;;;;;;4977339;28;20031;-67
2022/05/09 11:54:49;;;;;;;5.28;4.78;;;23.30;55.60;;;;;;4975840;28;20030;-67
2022/05/09 11:57:29;;;;;;;4.68;4.30;;;23.40;55.70;;;;;;4975892;28;20031;-67
2022/05/09 11:59:58;;;;;;;4.78;4.38;;;23.40;53.90;;;;;;4974670;28;20038;-67
2022/05/09 12:02:43;;;;;;;4.70;4.38;;;23.40;54.90;;;;;;4975714;28;20027;-68
2022/05/09 12:05:26;;;;;;;6.10;4.40;;;23.50;54.20;;;;;;4976635;28;20070;-67
2022/05/09 12:08:08;;;;;;;4.75;4.18;;;23.50;54.50;;;;;;4974808;28;20031;-67
2022/05/09 12:10:36;;;;;;;4.57;4.28;;;23.50;54.00;;;;;;4973754;28;20034;-66
2022/05/09 12:13:06;;;;;;;4.65;4.22;;;23.50;54.30;;;;;;4978876;28;20031;-68
2022/05/09 12:15:39;;;;;;;6.72;4.80;;;23.60;54.30;;;;;;4969270;28;20092;-67
2022/05/09 12:18:28;;;;;;;4.82;4.40;;;23.60;54.00;;;;;;4974905;28;20096;-67
2022/05/09 12:20:54;;;;;;;4.45;4.05;;;23.60;53.40;;;;;;4975946;28;20058;-67
2022/05/09 12:23:41;;;;;;;4.72;4.10;;;23.60;54.20;;;;;;4962057;28;20436;-67
2022/05/09 12:26:08;;;;;;;4.50;4.20;;;23.60;53.00;;;;;;4974335;28;20042;-67
2022/05/09 12:28:36;;;;;;;5.10;4.65;;;23.60;53.70;;;;;;4963570;28;20027;-67
2022/05/09 12:31:27;;;;;;;6.65;4.63;;;23.60;53.90;;;;;;4965699;28;20034;-67
2022/05/09 12:33:54;;;;;;;6.15;4.57;;;23.70;53.10;;;;;;4978609;28;20342;-67
2022/05/09 12:36:32;;;;;;;4.68;4.25;;;23.60;52.90;;;;;;4979141;28;20411;-67
2022/05/09 12:39:43;;;;;;;5.28;4.82;;;23.60;53.20;;;;;;4976947;28;20092;-67
2022/05/09 12:42:27;;;;;;;4.78;4.32;;;23.60;53.20;;;;;;4956549;28;20031;-67
2022/05/09 12:44:56;;;;;;;8.13;3.90;;;23.60;53.10;;;;;;4955960;28;20240;-67
2022/05/09 12:47:29;;;;;;;5.07;4.38;;;23.60;53.30;;;;;;4965041;28;20534;-67
2022/05/09 12:50:00;;;;;;;4.20;3.90;;;23.50;52.80;;;;;;4994554;28;20041;-67
2022/05/09 12:52:34;;;;;;;5.93;4.13;;;23.50;53.10;;;;;;4978475;28;20030;-67
2022/05/09 12:57:46;;;;;;;5.68;4.53;;;23.60;53.20;;;;;;4978457;28;20293;-67
2022/05/09 13:00:17;;;;;;;4.60;4.20;;;23.70;53.40;;;;;;4983615;28;20034;-67
2022/05/09 13:02:43;;;;;;;5.18;4.72;;;23.70;53.00;;;;;;4978664;28;20061;-67
2022/05/09 13:05:12;;;;;;;5.10;4.53;;;23.80;53.00;;;;;;4979158;28;20549;-67
2022/05/09 13:07:58;;;;;;;5.07;4.50;;;23.80;52.80;;;;;;4993718;28;20038;-67
2022/05/09 13:10:25;;;;;;;5.28;4.60;;;23.80;51.70;;;;;;4980964;28;20057;-67